createdAt,value
2023-01-23T00:01:47.085Z,20.35
2023-01-23T00:04:17.918Z,18.27
2023-01-23T00:06:50.852Z,17.83
2023-01-23T00:09:24.092Z,24.00
2023-01-23T00:11:54.718Z,21.08
2023-01-23T00:14:25.924Z,21.35
2023-01-23T00:16:56.588Z,18.63
2023-01-23T00:19:27.408Z,23.92
2023-01-23T00:21:57.952Z,20.92
2023-01-23T00:24:31.243Z,21.92
2023-01-23T00:27:01.736Z,25.45
2023-01-23T00:29:32.736Z,24.50
2023-01-23T00:32:03.583Z,24.05
2023-01-23T00:34:34.264Z,17.05
2023-01-23T00:37:04.743Z,19.70
2023-01-23T00:39:38.317Z,17.02
2023-01-23T00:42:09.157Z,19.85
2023-01-23T00:44:39.856Z,21.42
2023-01-23T00:47:10.355Z,24.27
2023-01-23T00:49:41.001Z,21.08
2023-01-23T00:52:11.512Z,20.77
2023-01-23T00:54:44.750Z,16.77
2023-01-23T00:57:15.299Z,18.92
2023-01-23T00:59:45.923Z,25.80
2023-01-23T01:02:16.579Z,26.33
2023-01-23T01:04:47.217Z,18.42
2023-01-23T01:07:18.023Z,24.13
2023-01-23T01:09:53.765Z,21.48
2023-01-23T01:12:24.230Z,22.35
2023-01-23T01:14:55.345Z,28.17
2023-01-23T01:17:25.917Z,22.42
2023-01-23T01:19:56.633Z,22.67
2023-01-23T01:22:27.241Z,25.10
2023-01-23T01:25:00.730Z,21.45
2023-01-23T01:27:32.337Z,24.27
2023-01-23T01:30:02.911Z,21.80
2023-01-23T01:32:33.680Z,18.88
2023-01-23T01:35:04.208Z,17.73
2023-01-23T01:37:36.609Z,18.75
2023-01-23T01:42:48.226Z,16.38
2023-01-23T01:45:48.633Z,18.70
2023-01-23T01:48:20.176Z,15.00
2023-01-23T01:50:51.167Z,18.33
2023-01-23T01:53:22.472Z,20.23
2023-01-23T01:55:56.595Z,21.38
2023-01-23T01:58:28.172Z,23.33
2023-01-23T02:00:58.817Z,17.92
2023-01-23T02:03:29.849Z,18.17
2023-01-23T02:06:00.485Z,15.93
2023-01-23T02:08:37.190Z,21.77
2023-01-23T02:11:10.928Z,19.20
2023-01-23T02:13:43.289Z,18.88
2023-01-23T02:16:16.238Z,19.60
2023-01-23T02:18:50.178Z,19.85
2023-01-23T02:21:27.965Z,20.15
2023-01-23T02:24:12.335Z,17.77
2023-01-23T02:26:48.094Z,16.88
2023-01-23T02:29:20.636Z,20.20
2023-01-23T02:31:58.189Z,22.58
2023-01-23T02:34:29.933Z,17.17
2023-01-23T02:37:04.457Z,22.67
2023-01-23T02:39:35.221Z,20.33
2023-01-23T02:42:09.668Z,21.17
2023-01-23T02:44:48.904Z,20.23
2023-01-23T02:47:22.670Z,18.00
2023-01-23T02:49:53.318Z,21.13
2023-01-23T02:52:25.842Z,15.05
2023-01-23T02:54:56.723Z,20.92
2023-01-23T02:57:30.000Z,17.67
2023-01-23T03:00:12.740Z,14.73
2023-01-23T03:02:43.455Z,16.63
2023-01-23T03:05:14.164Z,12.90
2023-01-23T03:07:44.889Z,16.90
2023-01-23T03:10:15.899Z,15.40
2023-01-23T03:12:51.818Z,13.68
2023-01-23T03:15:22.451Z,16.45
2023-01-23T03:17:54.010Z,19.10
2023-01-23T03:20:27.070Z,18.60
2023-01-23T03:22:57.917Z,16.50
2023-01-23T03:25:31.784Z,15.40
2023-01-23T03:28:25.307Z,16.70
2023-01-23T03:30:53.325Z,15.98
2023-01-23T03:33:24.089Z,21.58
2023-01-23T03:35:54.688Z,17.25
2023-01-23T03:38:25.373Z,19.98
2023-01-23T03:41:08.259Z,18.50
2023-01-23T03:43:41.940Z,18.75
2023-01-23T03:46:12.826Z,19.00
2023-01-23T03:48:43.566Z,18.70
2023-01-23T03:51:14.255Z,23.58
2023-01-23T03:53:44.943Z,22.77
2023-01-23T03:56:15.995Z,21.38
2023-01-23T03:58:49.423Z,22.20
2023-01-23T04:01:23.166Z,27.15
2023-01-23T04:03:55.715Z,22.52
2023-01-23T04:06:26.155Z,22.33
2023-01-23T04:08:57.548Z,25.65
2023-01-23T04:11:31.073Z,27.60
2023-01-23T04:14:04.413Z,27.17
2023-01-23T04:16:34.978Z,26.95
2023-01-23T04:19:05.805Z,24.15
2023-01-23T04:21:36.427Z,21.65
2023-01-23T04:24:07.437Z,21.50
2023-01-23T04:26:38.224Z,19.60
2023-01-23T04:29:12.265Z,18.77
2023-01-23T04:31:43.452Z,17.35
2023-01-23T04:34:16.440Z,23.83
2023-01-23T04:36:47.331Z,19.45
2023-01-23T04:39:18.387Z,16.17
2023-01-23T04:41:52.264Z,19.02
2023-01-23T04:44:50.460Z,19.55
2023-01-23T04:47:40.018Z,18.10
2023-01-23T04:50:14.814Z,22.60
2023-01-23T04:52:49.063Z,18.17
2023-01-23T04:55:19.842Z,20.92
2023-01-23T04:57:50.498Z,20.15
2023-01-23T05:00:31.412Z,20.85
2023-01-23T05:03:03.764Z,23.35
2023-01-23T05:05:35.455Z,21.85
2023-01-23T05:08:06.270Z,18.67
2023-01-23T05:10:37.272Z,21.15
2023-01-23T05:13:11.601Z,17.48
2023-01-23T05:15:45.241Z,17.58
2023-01-23T05:18:16.622Z,19.10
2023-01-23T05:20:48.310Z,16.92
2023-01-23T05:23:18.929Z,24.25
2023-01-23T05:25:53.548Z,22.17
2023-01-23T05:28:23.984Z,26.38
2023-01-23T05:31:00.947Z,25.52
2023-01-23T05:33:41.414Z,21.23
2023-01-23T05:36:12.215Z,22.35
2023-01-23T05:38:42.717Z,17.55
2023-01-23T05:41:13.867Z,23.35
2023-01-23T05:44:04.281Z,21.70
2023-01-23T05:46:48.979Z,22.15
2023-01-23T05:49:19.441Z,24.40
2023-01-23T05:51:50.157Z,29.08
2023-01-23T05:54:20.864Z,23.30
2023-01-23T05:56:51.475Z,27.25
2023-01-23T05:59:40.594Z,31.08
2023-01-23T06:02:39.809Z,40.78
2023-01-23T06:05:36.745Z,36.47
2023-01-23T06:08:14.725Z,29.27
2023-01-23T06:10:45.876Z,40.83
2023-01-23T06:13:17.026Z,40.33
2023-01-23T06:15:47.873Z,52.10
2023-01-23T06:18:21.254Z,54.42
2023-01-23T06:20:52.219Z,54.00
2023-01-23T06:23:22.803Z,41.97
2023-01-23T06:25:53.362Z,38.08
2023-01-23T06:28:23.860Z,42.22
2023-01-23T06:30:54.727Z,44.28
2023-01-23T06:33:38.898Z,26.40
2023-01-23T06:36:13.658Z,19.52
2023-01-23T06:38:44.131Z,19.88
2023-01-23T06:41:18.941Z,23.15
2023-01-23T06:43:55.478Z,28.20
2023-01-23T06:46:29.712Z,29.75
2023-01-23T06:49:06.023Z,27.95
2023-01-23T06:51:39.782Z,22.10
2023-01-23T06:54:14.031Z,23.48
2023-01-23T06:56:44.915Z,18.25
2023-01-23T06:59:16.204Z,21.13
2023-01-23T07:01:46.873Z,22.63
2023-01-23T07:04:19.998Z,23.25
2023-01-23T07:06:53.419Z,26.98
2023-01-23T07:09:24.729Z,20.83
2023-01-23T07:12:05.867Z,35.53
2023-01-23T07:14:37.383Z,35.28
2023-01-23T07:17:07.961Z,28.35
2023-01-23T07:19:42.045Z,30.00
2023-01-23T07:22:16.055Z,32.15
2023-01-23T07:24:46.580Z,22.42
2023-01-23T07:27:17.844Z,29.77
2023-01-23T07:29:48.520Z,23.52
2023-01-23T07:32:19.106Z,14.93
2023-01-23T07:34:53.354Z,57.55
2023-01-23T07:37:25.408Z,55.70
2023-01-23T07:39:56.273Z,94.63
2023-01-23T07:42:26.731Z,89.35
2023-01-23T07:44:57.249Z,49.15
2023-01-23T07:47:27.849Z,58.53
2023-01-23T07:50:00.878Z,34.55
2023-01-23T07:52:31.528Z,28.60
2023-01-23T07:55:02.104Z,22.48
2023-01-23T07:57:34.266Z,18.27
2023-01-23T08:00:05.036Z,15.48
2023-01-23T08:02:43.381Z,18.55
2023-01-23T08:05:17.929Z,13.45
2023-01-23T08:07:48.497Z,15.60
2023-01-23T08:10:20.035Z,18.63
2023-01-23T08:12:50.733Z,17.50
2023-01-23T08:15:21.309Z,20.75
2023-01-23T08:17:52.248Z,17.38
2023-01-23T08:20:25.677Z,17.20
2023-01-23T08:22:57.636Z,12.75
2023-01-23T08:25:28.281Z,21.33
2023-01-23T08:27:58.940Z,28.30
2023-01-23T08:30:29.476Z,19.27
2023-01-23T08:33:00.250Z,16.20
2023-01-23T08:35:33.770Z,12.93
2023-01-23T08:38:04.239Z,11.95
2023-01-23T08:40:35.753Z,11.93
2023-01-23T08:43:06.281Z,11.32
2023-01-23T08:45:36.775Z,12.82
2023-01-23T08:48:07.354Z,32.80
2023-01-23T08:50:40.370Z,16.08
2023-01-23T08:53:10.937Z,12.73
2023-01-23T08:55:41.437Z,13.88
2023-01-23T08:58:14.646Z,14.10
2023-01-23T09:00:45.506Z,17.55
2023-01-23T09:03:16.102Z,14.90
2023-01-23T09:05:49.364Z,16.60
2023-01-23T09:08:19.821Z,15.52
2023-01-23T09:10:50.378Z,16.75
2023-01-23T09:13:21.064Z,16.17
2023-01-23T09:15:51.494Z,12.45
2023-01-23T09:18:23.032Z,18.38
2023-01-23T09:20:56.455Z,13.00
2023-01-23T09:23:27.460Z,10.90
2023-01-23T09:25:58.054Z,16.83
2023-01-23T09:28:28.728Z,18.23
2023-01-23T09:30:59.272Z,15.60
2023-01-23T09:33:29.860Z,13.20
2023-01-23T09:36:02.954Z,15.63
2023-01-23T09:38:34.445Z,14.68
2023-01-23T09:41:12.359Z,16.80
2023-01-23T09:43:51.639Z,13.88
2023-01-23T09:46:26.235Z,21.23
2023-01-23T09:49:02.445Z,19.70
2023-01-23T09:51:53.845Z,9.48
2023-01-23T09:54:36.103Z,12.38
2023-01-23T09:57:14.680Z,12.93
2023-01-23T10:00:00.294Z,13.02
2023-01-23T10:02:33.568Z,10.27
2023-01-23T10:05:04.926Z,10.52
2023-01-23T10:07:56.281Z,13.48
2023-01-23T10:10:52.511Z,13.73
2023-01-23T10:13:35.271Z,8.65
2023-01-23T10:16:35.376Z,13.23
2023-01-23T10:19:23.008Z,13.23
2023-01-23T10:22:01.052Z,14.70
2023-01-23T10:24:47.395Z,9.77
2023-01-23T10:27:22.615Z,9.18
2023-01-23T10:29:55.609Z,11.10
2023-01-23T10:32:29.561Z,14.25
2023-01-23T10:35:03.506Z,14.80
2023-01-23T10:37:46.099Z,11.75
2023-01-23T10:40:41.139Z,11.88
2023-01-23T10:43:16.928Z,12.23
2023-01-23T10:45:48.569Z,17.95
2023-01-23T10:48:33.414Z,10.35
2023-01-23T10:51:04.548Z,9.90
2023-01-23T10:53:35.036Z,10.15
2023-01-23T10:56:17.987Z,10.70
2023-01-23T10:58:49.514Z,10.70
2023-01-23T11:01:29.965Z,11.60
2023-01-23T11:04:00.938Z,15.27
2023-01-23T11:06:31.449Z,8.18
2023-01-23T11:09:04.920Z,8.85
2023-01-23T11:11:38.148Z,9.82
2023-01-23T11:14:11.720Z,11.18
2023-01-23T11:16:42.664Z,9.88
2023-01-23T11:19:21.555Z,9.30
2023-01-23T11:21:57.421Z,9.38
2023-01-23T11:24:40.182Z,13.73
2023-01-23T11:27:28.378Z,10.50
2023-01-23T11:30:40.203Z,8.63
2023-01-23T11:33:24.008Z,8.27
2023-01-23T11:36:05.277Z,13.38
2023-01-23T11:38:51.298Z,9.52
2023-01-23T11:41:22.781Z,8.68
2023-01-23T11:43:56.238Z,12.68
2023-01-23T11:46:46.805Z,12.77
2023-01-23T11:49:41.846Z,10.77
2023-01-23T11:52:26.787Z,9.45
2023-01-23T11:55:14.964Z,10.77
2023-01-23T11:57:56.296Z,13.05
2023-01-23T12:00:36.037Z,12.25
2023-01-23T12:03:28.863Z,8.90
2023-01-23T12:06:19.938Z,10.05
2023-01-23T12:08:58.191Z,10.75
2023-01-23T12:11:39.253Z,8.18
2023-01-23T12:14:19.242Z,9.55
2023-01-23T12:17:08.980Z,9.38
2023-01-23T12:20:05.199Z,10.23
2023-01-23T12:22:50.656Z,11.48
2023-01-23T12:25:29.932Z,15.20
2023-01-23T12:28:09.511Z,10.27
2023-01-23T12:30:58.730Z,15.55
2023-01-23T12:33:54.588Z,12.05
2023-01-23T12:37:08.473Z,12.38
2023-01-23T12:39:57.967Z,12.07
2023-01-23T12:42:33.572Z,11.88
2023-01-23T12:45:09.811Z,11.82
2023-01-23T12:47:45.932Z,17.05
2023-01-23T12:50:24.962Z,11.07
2023-01-23T12:53:00.948Z,18.60
2023-01-23T12:55:38.176Z,11.65
2023-01-23T12:58:10.150Z,16.08
2023-01-23T13:00:52.167Z,11.98
2023-01-23T13:03:47.874Z,8.32
2023-01-23T13:06:32.490Z,10.00
2023-01-23T13:09:17.955Z,9.15
2023-01-23T13:11:59.031Z,10.50
2023-01-23T13:17:44.490Z,11.00
2023-01-23T13:20:44.894Z,10.05
2023-01-23T13:23:32.824Z,11.77
2023-01-23T13:26:32.035Z,10.10
2023-01-23T13:29:07.826Z,8.95
2023-01-23T13:31:45.494Z,11.38
2023-01-23T13:34:39.473Z,8.50
2023-01-23T13:37:51.705Z,9.57
2023-01-23T13:40:28.668Z,10.05
2023-01-23T13:42:59.188Z,9.43
2023-01-23T13:45:34.748Z,8.98
2023-01-23T14:20:40.254Z,9.23
2023-01-23T14:23:21.071Z,8.45
2023-01-23T14:25:54.451Z,8.90
2023-01-23T14:28:25.249Z,11.52
2023-01-23T14:31:01.026Z,11.00
2023-01-23T14:33:32.447Z,8.80
2023-01-23T14:36:02.939Z,11.02
2023-01-23T14:38:36.890Z,9.10
2023-01-23T14:41:11.081Z,14.82
2023-01-23T14:43:43.438Z,14.82
2023-01-23T14:46:20.572Z,14.27
2023-01-23T14:48:55.307Z,10.25
2023-01-23T14:51:28.239Z,11.05
2023-01-23T14:54:00.550Z,10.75
2023-01-23T14:56:36.259Z,12.25
2023-01-23T14:59:09.680Z,14.95
2023-01-23T15:01:40.198Z,15.45
2023-01-23T15:04:24.015Z,13.50
2023-01-23T15:06:56.448Z,10.70
2023-01-23T15:09:31.480Z,10.77
2023-01-23T15:12:17.952Z,11.52
2023-01-23T15:14:49.021Z,11.18
2023-01-23T15:17:23.298Z,15.13
2023-01-23T15:19:55.598Z,10.73
2023-01-23T15:22:30.421Z,17.13
2023-01-23T15:25:20.213Z,12.83
2023-01-23T15:27:53.599Z,9.60
2023-01-23T15:30:40.359Z,19.33
2023-01-23T15:33:28.854Z,16.23
2023-01-23T15:36:12.196Z,16.05
2023-01-23T15:38:42.881Z,23.20
2023-01-23T15:41:15.848Z,21.55
2023-01-23T15:43:50.586Z,25.30
2023-01-23T15:46:21.158Z,25.63
2023-01-23T15:48:51.744Z,24.77
2023-01-23T15:51:22.199Z,27.35
2023-01-23T15:53:53.026Z,15.90
2023-01-23T15:56:31.235Z,26.45
2023-01-23T15:59:06.749Z,23.20
2023-01-23T16:04:07.587Z,21.17
2023-01-23T16:06:38.407Z,28.10
2023-01-23T16:09:09.991Z,20.75
2023-01-23T16:11:41.302Z,28.77
2023-01-23T16:14:21.533Z,37.97
2023-01-23T16:16:52.045Z,24.52
2023-01-23T16:19:22.865Z,25.02
2023-01-23T16:22:04.301Z,22.67
2023-01-23T16:24:40.756Z,26.80
2023-01-23T16:29:49.748Z,27.95
2023-01-23T16:32:20.378Z,26.27
2023-01-23T16:34:51.134Z,27.02
2023-01-23T16:37:22.251Z,23.33
2023-01-23T16:39:52.975Z,29.52
2023-01-23T16:42:25.666Z,34.22
2023-01-23T16:44:59.080Z,25.63
2023-01-23T16:47:30.968Z,27.80
2023-01-23T16:50:01.526Z,26.90
2023-01-23T16:52:32.913Z,25.40
2023-01-23T16:55:03.797Z,23.42
2023-01-23T16:57:35.663Z,27.50
2023-01-23T17:00:10.516Z,32.42
2023-01-23T17:02:41.113Z,23.25
2023-01-23T17:05:12.798Z,28.10
2023-01-23T17:07:43.243Z,27.63
2023-01-23T17:10:18.291Z,23.30
2023-01-23T17:12:48.767Z,23.52
2023-01-23T17:15:27.985Z,23.80
2023-01-23T17:18:02.960Z,23.30
2023-01-23T17:20:33.487Z,26.33
2023-01-23T17:23:04.200Z,24.13
2023-01-23T17:25:42.708Z,35.28
2023-01-23T17:28:16.553Z,32.63
2023-01-23T17:30:53.884Z,41.47
2023-01-23T17:33:32.017Z,53.50
2023-01-23T17:36:08.060Z,44.80
2023-01-23T17:38:44.007Z,52.72
2023-01-23T17:41:20.112Z,48.03
2023-01-23T17:43:54.607Z,47.58
2023-01-23T17:46:31.638Z,46.42
2023-01-23T17:49:05.919Z,44.08
2023-01-23T17:51:36.632Z,37.30
2023-01-23T17:54:07.515Z,34.65
2023-01-23T17:56:38.310Z,34.88
2023-01-23T17:59:09.297Z,30.30
2023-01-23T18:01:43.570Z,27.67
2023-01-23T18:04:19.439Z,25.75
2023-01-23T18:06:50.798Z,28.48
2023-01-23T18:09:21.851Z,28.02
2023-01-23T18:11:56.087Z,30.00
2023-01-23T18:14:45.425Z,30.95
2023-01-23T18:17:31.541Z,22.40
2023-01-23T18:20:03.198Z,23.75
2023-01-23T18:22:35.685Z,21.85
2023-01-23T18:25:07.310Z,25.70
2023-01-23T18:27:42.034Z,55.60
2023-01-23T18:30:27.189Z,42.97
2023-01-23T18:33:10.121Z,59.38
2023-01-23T18:36:00.416Z,71.40
2023-01-23T18:38:43.328Z,76.65
2023-01-23T18:41:24.834Z,71.47
2023-01-23T18:44:07.033Z,63.03
2023-01-23T18:46:39.119Z,69.45
2023-01-23T18:49:21.482Z,71.22
2023-01-23T18:52:06.559Z,76.55
2023-01-23T18:54:45.430Z,72.38
2023-01-23T18:57:30.318Z,73.68
2023-01-23T19:00:08.404Z,75.70
2023-01-23T19:02:46.848Z,78.88
2023-01-23T19:05:33.799Z,77.32
2023-01-23T19:08:06.957Z,82.28
2023-01-23T19:10:48.852Z,74.35
2023-01-23T19:13:23.904Z,66.95
2023-01-23T19:16:04.715Z,69.97
2023-01-23T19:18:59.652Z,62.17
2023-01-23T19:21:35.459Z,64.82
2023-01-23T19:24:07.660Z,57.65
2023-01-23T19:26:42.543Z,60.63
2023-01-23T19:29:22.361Z,55.25
2023-01-23T19:32:09.705Z,63.28
2023-01-23T19:34:41.882Z,89.40
2023-01-23T19:37:15.708Z,90.85
2023-01-23T19:39:46.587Z,87.10
2023-01-23T19:42:17.772Z,78.65
2023-01-23T19:44:49.820Z,79.93
2023-01-23T19:47:20.833Z,75.40
2023-01-23T19:49:51.323Z,81.35
2023-01-23T19:52:25.286Z,70.57
2023-01-23T19:54:57.722Z,61.00
2023-01-23T19:57:29.745Z,59.85
2023-01-23T20:00:01.389Z,57.63
2023-01-23T20:02:34.509Z,48.97
2023-01-23T20:05:05.414Z,53.67
2023-01-23T20:07:38.696Z,62.67
2023-01-23T20:10:11.628Z,44.92
2023-01-23T20:12:44.742Z,43.30
2023-01-23T20:15:17.217Z,45.97
2023-01-23T20:17:48.145Z,52.67
2023-01-23T20:20:20.444Z,70.90
2023-01-23T20:22:54.302Z,44.42
2023-01-23T20:25:24.872Z,62.08
2023-01-23T20:27:56.045Z,52.70
2023-01-23T20:30:27.181Z,48.28
2023-01-23T20:35:28.780Z,51.90
2023-01-23T20:38:02.492Z,49.50
2023-01-23T20:40:33.343Z,45.58
2023-01-23T20:43:04.254Z,44.05
2023-01-23T20:45:34.827Z,45.83
2023-01-23T20:48:05.614Z,38.72
2023-01-23T20:50:36.310Z,49.05
2023-01-23T20:53:22.475Z,47.92
2023-01-23T20:55:56.303Z,66.07
2023-01-23T20:58:39.222Z,65.05
2023-01-23T21:01:09.946Z,67.15
2023-01-23T21:03:42.062Z,66.53
2023-01-23T21:06:13.965Z,66.70
2023-01-23T21:08:49.688Z,65.30
2023-01-23T21:11:24.170Z,61.03
2023-01-23T21:13:55.340Z,60.88
2023-01-23T21:16:25.853Z,58.28
2023-01-23T21:18:56.711Z,48.63
2023-01-23T21:21:27.238Z,48.15
2023-01-23T21:24:00.579Z,48.10
2023-01-23T21:26:31.979Z,49.13
2023-01-23T21:29:02.737Z,57.53
2023-01-23T21:31:35.720Z,54.72
2023-01-23T21:34:08.299Z,49.30
2023-01-23T21:36:39.355Z,41.38
2023-01-23T21:39:16.031Z,44.08
2023-01-23T21:41:47.466Z,46.25
2023-01-23T21:44:18.210Z,48.30
2023-01-23T21:46:49.490Z,41.05
2023-01-23T21:49:20.372Z,41.28
2023-01-23T21:51:51.037Z,34.67
2023-01-23T21:54:24.998Z,40.22
2023-01-23T21:56:55.941Z,38.17
2023-01-23T21:59:26.539Z,41.75
2023-01-23T22:01:54.517Z,38.08
2023-01-23T22:04:25.934Z,38.75
2023-01-23T22:06:58.783Z,38.28
2023-01-23T22:09:32.096Z,40.92
2023-01-23T22:12:02.694Z,42.00
2023-01-23T22:14:33.599Z,46.08
2023-01-23T22:17:05.427Z,56.72
2023-01-23T22:19:36.056Z,50.25
2023-01-23T22:22:06.952Z,55.80
2023-01-23T22:24:40.071Z,48.50
2023-01-23T22:27:10.724Z,39.67
2023-01-23T22:29:41.448Z,37.83
2023-01-23T22:32:12.105Z,32.53
2023-01-23T22:34:43.058Z,33.97
2023-01-23T22:37:13.636Z,29.48
2023-01-23T22:39:47.061Z,33.50
2023-01-23T22:42:19.235Z,29.23
2023-01-23T22:44:49.828Z,26.75
2023-01-23T22:47:20.499Z,24.05
2023-01-23T22:49:51.008Z,22.33
2023-01-23T22:52:22.072Z,24.30
2023-01-23T22:54:55.339Z,28.13
2023-01-23T22:57:25.885Z,23.95
2023-01-23T22:59:56.427Z,23.67
2023-01-23T23:02:27.101Z,23.55
2023-01-23T23:04:57.572Z,21.00
2023-01-23T23:07:28.152Z,23.95
2023-01-23T23:10:01.405Z,25.35
2023-01-23T23:12:33.205Z,30.77
2023-01-23T23:15:03.728Z,32.65
2023-01-23T23:17:34.410Z,25.98
2023-01-23T23:20:05.050Z,27.15
2023-01-23T23:22:35.908Z,28.20
2023-01-23T23:25:09.950Z,27.17
2023-01-23T23:27:40.777Z,26.42
2023-01-23T23:30:12.746Z,27.27
2023-01-23T23:32:43.311Z,27.98
2023-01-23T23:35:13.913Z,28.98
2023-01-23T23:37:44.465Z,28.88
2023-01-23T23:40:17.838Z,30.67
2023-01-23T23:42:48.585Z,29.48
2023-01-23T23:45:19.732Z,33.45
2023-01-23T23:47:50.603Z,33.00
2023-01-23T23:50:21.452Z,31.52
2023-01-23T23:52:51.949Z,29.40
2023-01-23T23:55:25.165Z,30.27
2023-01-23T23:57:55.779Z,25.88
